createdAt,value
2018-07-30T00:00:55.659Z,62.95
2018-07-30T00:01:55.649Z,62.35
2018-07-30T00:02:55.633Z,64.55
2018-07-30T00:03:55.651Z,62.95
2018-07-30T00:04:55.612Z,62.75
2018-07-30T00:05:55.603Z,61.75
2018-07-30T00:06:55.607Z,62.62
2018-07-30T00:07:55.576Z,61.42
2018-07-30T00:08:55.586Z,62.42
2018-07-30T00:09:55.565Z,60.82
2018-07-30T00:10:55.547Z,60.72
2018-07-30T00:11:55.537Z,60.69
2018-07-30T00:12:55.522Z,61.22
2018-07-30T00:13:55.512Z,60.82
2018-07-30T00:14:55.539Z,60.69
2018-07-30T00:15:55.506Z,60.69
2018-07-30T00:16:55.483Z,59.99
2018-07-30T00:17:55.472Z,59.49
2018-07-30T00:18:55.455Z,60.10
2018-07-30T00:19:55.441Z,60.10
2018-07-30T00:20:55.446Z,60.69
2018-07-30T00:21:55.435Z,59.56
2018-07-30T00:22:55.408Z,59.66
2018-07-30T00:23:55.400Z,59.36
2018-07-30T00:24:55.381Z,59.27
2018-07-30T00:25:55.390Z,58.97
2018-07-30T00:26:55.373Z,58.76
2018-07-30T00:27:55.369Z,58.64
2018-07-30T00:28:55.342Z,60.03
2018-07-30T00:29:55.328Z,60.03
2018-07-30T00:30:55.352Z,59.77
2018-07-30T00:31:55.309Z,59.27
2018-07-30T00:32:55.298Z,59.77
2018-07-30T00:33:55.307Z,58.97
2018-07-30T00:34:55.286Z,60.06
2018-07-30T00:35:55.261Z,59.66
2018-07-30T00:36:55.278Z,59.77
2018-07-30T00:37:55.244Z,59.36
2018-07-30T00:38:55.227Z,59.56
2018-07-30T00:39:55.232Z,59.66
2018-07-30T00:40:55.208Z,59.44
2018-07-30T00:41:55.198Z,59.53
2018-07-30T00:42:55.194Z,60.24
2018-07-30T00:43:55.173Z,60.27
2018-07-30T00:44:55.166Z,59.66
2018-07-30T00:45:55.162Z,60.46
2018-07-30T00:46:55.153Z,60.36
2018-07-30T00:47:55.138Z,60.66
2018-07-30T00:48:55.116Z,59.74
2018-07-30T00:49:55.106Z,60.86
2018-07-30T00:50:55.099Z,60.86
2018-07-30T00:51:55.095Z,60.27
2018-07-30T00:52:55.089Z,61.07
2018-07-30T00:53:55.059Z,60.27
2018-07-30T00:54:55.060Z,61.36
2018-07-30T00:55:55.040Z,61.26
2018-07-30T00:56:55.113Z,60.77
2018-07-30T00:57:55.027Z,61.36
2018-07-30T00:58:55.044Z,61.66
2018-07-30T00:59:54.992Z,61.66
2018-07-30T01:00:54.981Z,61.57
2018-07-30T01:01:54.966Z,61.46
2018-07-30T01:02:54.962Z,62.06
2018-07-30T01:03:54.966Z,61.66
2018-07-30T01:04:54.943Z,62.16
2018-07-30T01:05:54.922Z,62.06
2018-07-30T01:06:54.916Z,61.99
2018-07-30T01:07:54.895Z,61.66
2018-07-30T01:08:54.896Z,62.96
2018-07-30T01:09:54.902Z,62.06
2018-07-30T01:10:54.867Z,62.06
2018-07-30T01:11:54.854Z,62.46
2018-07-30T01:12:54.843Z,62.86
2018-07-30T01:13:54.835Z,62.89
2018-07-30T01:14:54.846Z,63.19
2018-07-30T01:15:54.830Z,63.19
2018-07-30T01:16:54.803Z,63.29
2018-07-30T01:17:54.783Z,64.49
2018-07-30T01:18:54.777Z,63.89
2018-07-30T01:19:54.765Z,64.00
2018-07-30T01:20:54.763Z,63.19
2018-07-30T01:21:54.755Z,62.79
2018-07-30T01:22:54.738Z,62.89
2018-07-30T01:23:54.720Z,62.86
2018-07-30T01:24:54.709Z,63.19
2018-07-30T01:25:54.722Z,63.09
2018-07-30T01:26:54.691Z,63.19
2018-07-30T01:27:54.691Z,63.17
2018-07-30T01:28:54.659Z,64.19
2018-07-30T01:29:54.657Z,63.39
2018-07-30T01:30:54.646Z,63.49
2018-07-30T01:31:54.653Z,63.69
2018-07-30T01:32:54.623Z,64.46
2018-07-30T01:33:54.620Z,63.79
2018-07-30T01:34:54.599Z,63.89
2018-07-30T01:35:54.586Z,63.59
2018-07-30T01:36:54.576Z,63.66
2018-07-30T01:37:54.576Z,63.66
2018-07-30T01:38:54.551Z,63.26
2018-07-30T01:39:54.556Z,63.56
2018-07-30T01:40:54.531Z,63.46
2018-07-30T01:41:54.541Z,64.26
2018-07-30T01:42:54.514Z,63.66
2018-07-30T01:43:54.499Z,64.36
2018-07-30T01:44:54.484Z,64.06
2018-07-30T01:45:54.494Z,63.46
2018-07-30T01:46:54.461Z,63.66
2018-07-30T01:47:54.468Z,63.56
2018-07-30T01:48:54.445Z,64.36
2018-07-30T01:49:54.426Z,64.36
2018-07-30T01:50:54.420Z,65.49
2018-07-30T01:51:54.421Z,65.19
2018-07-30T01:52:54.420Z,65.29
2018-07-30T01:53:54.389Z,65.59
2018-07-30T01:54:54.374Z,65.29
2018-07-30T01:55:54.357Z,65.12
2018-07-30T01:56:54.356Z,65.52
2018-07-30T01:57:54.357Z,65.79
2018-07-30T01:58:54.357Z,65.09
2018-07-30T01:59:54.606Z,66.32
2018-07-30T02:00:54.341Z,65.42
2018-07-30T02:01:54.291Z,66.22
2018-07-30T02:02:54.282Z,65.92
2018-07-30T02:03:54.292Z,66.42
2018-07-30T02:04:54.270Z,66.16
2018-07-30T02:05:54.247Z,66.16
2018-07-30T02:06:54.238Z,66.46
2018-07-30T02:07:54.237Z,66.46
2018-07-30T02:08:54.224Z,66.46
2018-07-30T02:09:54.228Z,66.36
2018-07-30T02:10:54.197Z,67.66
2018-07-30T02:11:54.177Z,67.76
2018-07-30T02:12:54.173Z,67.66
2018-07-30T02:13:54.158Z,67.66
2018-07-30T02:14:54.177Z,68.16
2018-07-30T02:15:54.149Z,67.66
2018-07-30T02:16:54.120Z,67.55
2018-07-30T02:17:54.111Z,67.69
2018-07-30T02:18:54.100Z,67.69
2018-07-30T02:19:54.095Z,67.89
2018-07-30T02:20:54.096Z,67.89
2018-07-30T02:21:54.076Z,68.09
2018-07-30T02:22:54.059Z,68.39
2018-07-30T02:23:54.048Z,68.82
2018-07-30T02:24:54.035Z,69.02
2018-07-30T02:25:54.024Z,69.42
2018-07-30T02:26:54.025Z,70.03
2018-07-30T02:27:54.016Z,70.12
2018-07-30T02:28:53.986Z,70.23
2018-07-30T02:29:53.978Z,70.73
2018-07-30T02:30:53.965Z,70.86
2018-07-30T02:31:53.963Z,70.32
2018-07-30T02:32:53.946Z,70.86
2018-07-30T02:33:53.945Z,71.16
2018-07-30T02:34:53.920Z,70.96
2018-07-30T02:35:53.920Z,70.86
2018-07-30T02:36:53.896Z,71.06
2018-07-30T02:37:53.900Z,70.76
2018-07-30T02:38:53.881Z,70.96
2018-07-30T02:39:53.878Z,71.16
2018-07-30T02:40:53.856Z,72.30
2018-07-30T02:41:53.843Z,71.96
2018-07-30T02:42:53.849Z,71.56
2018-07-30T02:43:53.821Z,72.20
2018-07-30T02:44:53.808Z,71.59
2018-07-30T02:45:53.818Z,72.70
2018-07-30T02:46:53.791Z,72.40
2018-07-30T02:47:53.802Z,70.96
2018-07-30T02:48:53.765Z,71.77
2018-07-30T02:49:53.751Z,72.60
2018-07-30T02:50:53.741Z,71.80
2018-07-30T02:51:53.762Z,71.77
2018-07-30T02:52:53.715Z,71.09
2018-07-30T02:53:53.722Z,71.46
2018-07-30T02:54:53.703Z,72.06
2018-07-30T02:55:53.685Z,72.16
2018-07-30T02:56:53.676Z,71.36
2018-07-30T02:57:53.677Z,70.96
2018-07-30T02:58:53.668Z,71.00
2018-07-30T02:59:53.645Z,71.39
2018-07-30T03:00:53.630Z,73.00
2018-07-30T03:01:53.620Z,72.50
2018-07-30T03:02:53.608Z,71.39
2018-07-30T03:03:53.610Z,72.09
2018-07-30T03:04:53.594Z,71.50
2018-07-30T03:05:53.569Z,72.20
2018-07-30T03:06:53.564Z,72.20
2018-07-30T03:07:53.555Z,72.40
2018-07-30T03:08:53.535Z,72.50
2018-07-30T03:09:53.564Z,72.30
2018-07-30T03:10:53.515Z,71.90
2018-07-30T03:11:53.503Z,72.40
2018-07-30T03:12:53.497Z,72.30
2018-07-30T03:13:53.486Z,73.10
2018-07-30T03:14:53.467Z,72.90
2018-07-30T03:15:53.483Z,72.80
2018-07-30T03:16:53.442Z,72.33
2018-07-30T03:17:53.439Z,72.33
2018-07-30T03:18:53.427Z,73.54
2018-07-30T03:19:53.412Z,73.24
2018-07-30T03:20:53.425Z,74.44
2018-07-30T03:21:53.398Z,73.44
2018-07-30T03:22:53.381Z,72.94
2018-07-30T03:23:53.371Z,73.24
2018-07-30T03:24:53.358Z,74.54
2018-07-30T03:25:53.350Z,74.14
2018-07-30T03:26:53.347Z,74.98
2018-07-30T03:27:53.344Z,74.84
2018-07-30T03:28:53.386Z,74.48
2018-07-30T03:29:53.304Z,74.27
2018-07-30T03:30:53.291Z,74.68
2018-07-30T03:31:53.298Z,74.98
2018-07-30T03:32:53.270Z,74.57
2018-07-30T03:33:53.273Z,74.27
2018-07-30T03:34:53.245Z,74.41
2018-07-30T03:35:53.235Z,74.21
2018-07-30T03:36:53.221Z,74.48
2018-07-30T03:37:53.231Z,74.31
2018-07-30T03:38:53.199Z,74.41
2018-07-30T03:39:53.199Z,74.81
2018-07-30T03:40:53.172Z,74.98
2018-07-30T03:41:53.167Z,74.41
2018-07-30T03:42:53.160Z,75.11
2018-07-30T03:43:53.183Z,75.11
2018-07-30T03:44:53.133Z,76.42
2018-07-30T03:45:53.135Z,75.11
2018-07-30T03:46:53.106Z,76.21
2018-07-30T03:47:53.116Z,76.42
2018-07-30T03:48:53.089Z,75.92
2018-07-30T03:49:53.183Z,76.42
2018-07-30T03:50:53.063Z,76.42
2018-07-30T03:51:53.062Z,76.21
2018-07-30T03:52:53.042Z,76.02
2018-07-30T03:53:53.028Z,76.92
2018-07-30T03:54:53.028Z,77.02
2018-07-30T03:55:53.007Z,76.42
2018-07-30T03:56:52.993Z,76.52
2018-07-30T03:57:53.007Z,76.21
2018-07-30T03:58:52.970Z,76.52
2018-07-30T03:59:53.023Z,76.42
2018-07-30T04:00:52.953Z,76.42
2018-07-30T04:01:52.938Z,76.52
2018-07-30T04:02:52.923Z,78.42
2018-07-30T04:03:52.932Z,76.62
2018-07-30T04:04:52.900Z,77.02
2018-07-30T04:05:52.958Z,77.32
2018-07-30T04:06:52.886Z,76.72
2018-07-30T04:07:52.872Z,76.82
2018-07-30T04:08:52.860Z,77.72
2018-07-30T04:09:52.861Z,78.22
2018-07-30T04:10:52.836Z,76.72
2018-07-30T04:11:52.834Z,77.52
2018-07-30T04:12:52.810Z,77.72
2018-07-30T04:13:52.806Z,76.82
2018-07-30T04:14:52.793Z,77.02
2018-07-30T04:15:52.806Z,77.32
2018-07-30T04:16:52.782Z,76.98
2018-07-30T04:17:52.757Z,78.03
2018-07-30T04:18:52.748Z,77.99
2018-07-30T04:19:52.737Z,78.49
2018-07-30T04:20:52.726Z,77.19
2018-07-30T04:21:52.750Z,77.79
2018-07-30T04:22:52.701Z,77.39
2018-07-30T04:23:52.686Z,76.98
2018-07-30T04:24:52.681Z,77.39
2018-07-30T04:25:52.664Z,77.48
2018-07-30T04:26:52.666Z,77.99
2018-07-30T04:27:52.682Z,77.59
2018-07-30T04:28:52.631Z,77.39
2018-07-30T04:29:52.625Z,77.85
2018-07-30T04:30:52.639Z,77.45
2018-07-30T04:31:52.607Z,77.45
2018-07-30T04:32:52.612Z,77.25
2018-07-30T04:33:52.594Z,77.55
2018-07-30T04:34:52.563Z,76.95
2018-07-30T04:35:52.554Z,78.25
2018-07-30T04:36:52.544Z,77.45
2018-07-30T04:37:52.530Z,78.35
2018-07-30T04:38:52.650Z,77.55
2018-07-30T04:39:52.514Z,76.81
2018-07-30T04:40:52.492Z,77.95
2018-07-30T04:41:52.487Z,78.31
2018-07-30T04:42:52.475Z,77.21
2018-07-30T04:43:52.565Z,78.52
2018-07-30T04:44:52.465Z,77.11
2018-07-30T04:45:52.442Z,76.91
2018-07-30T04:46:52.431Z,76.81
2018-07-30T04:47:52.430Z,76.41
2018-07-30T04:48:52.423Z,76.41
2018-07-30T04:49:52.398Z,76.91
2018-07-30T04:50:52.396Z,77.61
2018-07-30T04:51:52.373Z,78.61
2018-07-30T04:52:52.364Z,78.42
2018-07-30T04:53:52.373Z,78.02
2018-07-30T04:54:52.338Z,78.52
2018-07-30T04:55:52.331Z,78.31
2018-07-30T04:56:52.350Z,78.52
2018-07-30T04:57:52.308Z,78.72
2018-07-30T04:58:52.299Z,78.52
2018-07-30T04:59:52.318Z,79.02
2018-07-30T05:00:52.281Z,78.58
2018-07-30T05:01:52.260Z,78.78
2018-07-30T05:02:52.264Z,78.92
2018-07-30T05:03:52.306Z,78.61
2018-07-30T05:04:52.231Z,78.92
2018-07-30T05:05:52.230Z,78.61
2018-07-30T05:06:52.209Z,78.72
2018-07-30T05:07:52.193Z,78.68
2018-07-30T05:08:52.192Z,78.28
2018-07-30T05:09:52.169Z,78.42
2018-07-30T05:10:52.188Z,78.48
2018-07-30T05:11:52.152Z,78.48
2018-07-30T05:12:52.134Z,78.88
2018-07-30T05:13:52.128Z,78.28
2018-07-30T05:14:52.130Z,78.78
2018-07-30T05:15:52.104Z,79.48
2018-07-30T05:16:52.108Z,79.58
2018-07-30T05:17:52.080Z,79.48
2018-07-30T05:18:52.074Z,79.28
2018-07-30T05:19:52.059Z,79.18
2018-07-30T05:20:52.065Z,79.18
2018-07-30T05:21:52.057Z,79.64
2018-07-30T05:22:52.028Z,78.48
2018-07-30T05:23:52.013Z,78.94
2018-07-30T05:24:52.002Z,79.44
2018-07-30T05:25:51.994Z,78.84
2018-07-30T05:26:51.991Z,78.54
2018-07-30T05:27:52.004Z,78.44
2018-07-30T05:28:51.954Z,79.14
2018-07-30T05:29:51.952Z,78.94
2018-07-30T05:30:51.936Z,78.54
2018-07-30T05:31:51.926Z,78.74
2018-07-30T05:32:51.927Z,79.44
2018-07-30T05:33:51.916Z,79.85
2018-07-30T05:34:51.890Z,79.14
2018-07-30T05:35:51.876Z,79.24
2018-07-30T05:36:51.869Z,79.24
2018-07-30T05:37:51.858Z,79.34
2018-07-30T05:38:51.882Z,79.30
2018-07-30T05:39:51.835Z,78.74
2018-07-30T05:40:51.827Z,78.54
2018-07-30T05:41:51.811Z,78.74
2018-07-30T05:42:51.875Z,78.44
2018-07-30T05:43:51.799Z,78.94
2018-07-30T05:44:51.788Z,78.64
2018-07-30T05:45:51.767Z,79.14
2018-07-30T05:46:51.757Z,78.44
2018-07-30T05:47:51.755Z,79.41
2018-07-30T05:48:51.753Z,79.10
2018-07-30T05:49:51.716Z,79.71
2018-07-30T05:50:51.725Z,78.94
2018-07-30T05:51:51.698Z,78.94
2018-07-30T05:52:51.686Z,78.74
2018-07-30T05:53:51.680Z,78.80
2018-07-30T05:54:51.686Z,78.20
2018-07-30T05:55:51.663Z,78.30
2018-07-30T05:56:51.642Z,77.10
2018-07-30T05:57:51.638Z,78.30
2018-07-30T05:58:51.614Z,78.06
2018-07-30T05:59:51.686Z,77.36
2018-07-30T06:00:51.602Z,76.76
2018-07-30T06:01:51.600Z,76.56
2018-07-30T06:02:51.572Z,77.26
2018-07-30T06:03:51.564Z,77.76
2018-07-30T06:04:51.551Z,78.17
2018-07-30T06:05:51.552Z,78.27
2018-07-30T06:06:51.528Z,78.63
2018-07-30T06:07:51.542Z,78.27
2018-07-30T06:08:51.506Z,77.23
2018-07-30T06:09:51.502Z,78.73
2018-07-30T06:10:51.512Z,78.13
2018-07-30T06:11:51.472Z,77.23
2018-07-30T06:12:51.463Z,77.83
2018-07-30T06:13:51.458Z,78.13
2018-07-30T06:14:51.437Z,78.19
2018-07-30T06:15:51.429Z,77.23
2018-07-30T06:16:51.444Z,77.19
2018-07-30T06:17:51.409Z,78.39
2018-07-30T06:18:51.396Z,78.19
2018-07-30T06:19:51.395Z,75.49
2018-07-30T06:20:51.378Z,76.59
2018-07-30T06:21:51.359Z,74.49
2018-07-30T06:22:51.361Z,73.99
2018-07-30T06:23:51.334Z,72.59
2018-07-30T06:24:51.323Z,73.09
2018-07-30T06:25:51.332Z,72.49
2018-07-30T06:26:51.303Z,72.39
2018-07-30T06:27:51.324Z,71.96
2018-07-30T06:28:51.280Z,71.16
2018-07-30T06:29:51.271Z,70.76
2018-07-30T06:30:51.253Z,70.56
2018-07-30T06:31:51.344Z,70.16
2018-07-30T06:32:51.233Z,70.56
2018-07-30T06:33:51.233Z,68.82
2018-07-30T06:34:51.209Z,69.32
2018-07-30T06:35:51.204Z,70.12
2018-07-30T06:36:51.190Z,70.09
2018-07-30T06:37:51.190Z,70.29
2018-07-30T06:38:51.201Z,69.49
2018-07-30T06:39:51.158Z,69.59
2018-07-30T06:40:51.147Z,65.97
2018-07-30T06:41:51.133Z,67.57
2018-07-30T06:42:51.151Z,67.53
2018-07-30T06:43:51.117Z,65.44
2018-07-30T06:44:51.113Z,65.04
2018-07-30T06:45:51.089Z,66.03
2018-07-30T06:46:51.076Z,64.61
2018-07-30T06:47:51.098Z,65.70
2018-07-30T06:48:51.061Z,65.08
2018-07-30T06:49:51.092Z,64.37
2018-07-30T06:50:57.604Z,64.87
2018-07-30T06:51:51.022Z,64.67
2018-07-30T06:52:51.002Z,64.45
2018-07-30T06:53:50.997Z,64.01
2018-07-30T06:54:50.987Z,63.82
2018-07-30T06:55:51.000Z,62.82
2018-07-30T06:56:50.965Z,63.49
2018-07-30T06:57:50.954Z,63.13
2018-07-30T06:58:50.941Z,62.37
2018-07-30T06:59:50.937Z,64.83
2018-07-30T07:00:50.937Z,60.80
2018-07-30T07:01:50.924Z,60.00
2018-07-30T07:02:50.897Z,59.55
2018-07-30T07:03:50.884Z,58.46
2018-07-30T07:04:50.876Z,60.61
2018-07-30T07:05:50.880Z,59.06
2018-07-30T07:06:50.855Z,57.68
2018-07-30T07:07:50.858Z,58.05
2018-07-30T07:08:50.825Z,54.63
2018-07-30T07:09:50.821Z,55.20
2018-07-30T07:10:50.848Z,55.18
2018-07-30T07:11:50.797Z,55.83
2018-07-30T07:12:50.791Z,55.15
2018-07-30T07:13:50.785Z,54.33
2018-07-30T07:14:50.761Z,53.12
2018-07-30T07:15:50.798Z,49.95
2018-07-30T07:16:50.796Z,52.58
2018-07-30T07:17:50.733Z,52.97
2018-07-30T07:18:50.721Z,47.85
2018-07-30T07:19:50.722Z,51.18
2018-07-30T07:20:50.701Z,47.41
2018-07-30T07:21:50.723Z,50.66
2018-07-30T07:22:50.680Z,47.31
2018-07-30T07:23:50.669Z,49.87
2018-07-30T07:24:50.673Z,50.04
2018-07-30T07:25:50.644Z,50.14
2018-07-30T07:26:50.705Z,49.13
2018-07-30T07:27:50.653Z,49.92
2018-07-30T07:28:50.613Z,48.45
2018-07-30T07:29:50.601Z,47.76
2018-07-30T07:30:50.598Z,48.94
2018-07-30T07:31:50.574Z,45.30
2018-07-30T07:32:50.586Z,44.91
2018-07-30T07:33:50.560Z,46.38
2018-07-30T07:34:50.584Z,47.27
2018-07-30T07:35:50.531Z,46.28
2018-07-30T07:36:50.541Z,47.54
2018-07-30T07:37:50.541Z,46.73
2018-07-30T07:38:50.503Z,44.98
2018-07-30T07:39:50.492Z,47.22
2018-07-30T07:40:50.477Z,45.75
2018-07-30T07:41:50.465Z,44.96
2018-07-30T07:42:50.466Z,46.22
2018-07-30T07:43:50.486Z,43.49
2018-07-30T07:44:50.503Z,45.04
2018-07-30T07:45:50.423Z,44.55
2018-07-30T07:46:50.408Z,45.12
2018-07-30T07:47:50.417Z,40.01
2018-07-30T07:48:50.406Z,42.88
2018-07-30T07:49:50.564Z,42.37
2018-07-30T07:50:50.605Z,44.53
2018-07-30T07:51:50.356Z,44.80
2018-07-30T07:52:50.350Z,45.39
2018-07-30T07:53:50.337Z,41.96
2018-07-30T07:54:50.368Z,41.37
2018-07-30T07:55:50.319Z,40.48
2018-07-30T07:56:50.307Z,43.13
2018-07-30T07:57:50.295Z,42.05
2018-07-30T07:58:50.285Z,45.19
2018-07-30T07:59:50.272Z,42.74
2018-07-30T08:00:50.341Z,42.55
2018-07-30T08:01:50.248Z,40.19
2018-07-30T08:02:50.232Z,39.41
2018-07-30T08:03:50.227Z,39.33
2018-07-30T08:04:50.224Z,39.82
2018-07-30T08:05:50.207Z,40.21
2018-07-30T08:06:50.224Z,40.01
2018-07-30T08:07:50.185Z,39.43
2018-07-30T08:08:50.173Z,38.64
2018-07-30T08:09:50.326Z,40.70
2018-07-30T08:10:50.204Z,43.05
2018-07-30T08:11:50.174Z,42.98
2018-07-30T08:12:50.145Z,42.88
2018-07-30T08:13:50.120Z,42.88
2018-07-30T08:14:50.111Z,43.18
2018-07-30T08:15:50.098Z,45.24
2018-07-30T08:16:50.086Z,43.86
2018-07-30T08:17:50.089Z,44.35
2018-07-30T08:18:50.076Z,42.49
2018-07-30T08:19:50.053Z,44.65
2018-07-30T08:20:50.049Z,43.96
2018-07-30T08:21:50.035Z,44.84
2018-07-30T08:22:50.039Z,45.04
2018-07-30T08:23:50.011Z,43.08
2018-07-30T08:24:50.014Z,43.27
2018-07-30T08:25:49.990Z,43.10
2018-07-30T08:26:49.986Z,45.14
2018-07-30T08:27:50.001Z,42.19
2018-07-30T08:28:49.964Z,41.72
2018-07-30T08:29:49.946Z,44.27
2018-07-30T08:30:49.957Z,42.51
2018-07-30T08:31:49.927Z,43.49
2018-07-30T08:32:49.911Z,44.37
2018-07-30T08:33:50.030Z,44.47
2018-07-30T08:34:49.889Z,43.19
2018-07-30T08:35:49.879Z,43.49
2018-07-30T08:36:49.882Z,41.61
2018-07-30T08:37:49.855Z,42.41
2018-07-30T08:38:49.866Z,41.53
2018-07-30T08:39:49.835Z,40.86
2018-07-30T08:40:49.829Z,43.04
2018-07-30T08:41:49.816Z,41.59
2018-07-30T08:42:49.821Z,43.16
2018-07-30T08:43:49.796Z,44.34
2018-07-30T08:44:49.798Z,44.22
2018-07-30T08:45:49.778Z,42.24
2018-07-30T08:46:49.767Z,43.22
2018-07-30T08:47:49.752Z,43.22
2018-07-30T08:48:49.811Z,40.66
2018-07-30T08:49:49.747Z,42.04
2018-07-30T08:50:49.721Z,42.61
2018-07-30T08:51:49.710Z,41.53
2018-07-30T08:52:49.699Z,41.24
2018-07-30T08:53:49.702Z,41.43
2018-07-30T08:54:49.695Z,41.14
2018-07-30T08:55:49.672Z,42.71
2018-07-30T08:56:49.660Z,42.11
2018-07-30T08:57:49.646Z,42.90
2018-07-30T08:58:49.635Z,41.14
2018-07-30T08:59:49.635Z,42.00
2018-07-30T09:00:49.628Z,42.80
2018-07-30T09:01:49.603Z,42.58
2018-07-30T09:02:49.586Z,42.58
2018-07-30T09:03:49.579Z,40.51
2018-07-30T09:04:49.568Z,39.54
2018-07-30T09:05:49.596Z,39.94
2018-07-30T09:06:49.546Z,42.39
2018-07-30T09:07:49.536Z,41.71
2018-07-30T09:08:49.532Z,41.19
2018-07-30T09:09:49.515Z,40.90
2018-07-30T09:10:49.509Z,39.23
2018-07-30T09:11:49.517Z,40.51
2018-07-30T09:12:49.643Z,40.90
2018-07-30T09:13:49.474Z,40.39
2018-07-30T09:14:49.460Z,38.33
2018-07-30T09:15:49.449Z,41.27
2018-07-30T09:16:49.486Z,39.70
2018-07-30T09:17:49.446Z,39.80
2018-07-30T09:18:49.412Z,40.00
2018-07-30T09:19:49.406Z,39.14
2018-07-30T09:20:49.393Z,39.43
2018-07-30T09:21:49.385Z,37.88
2018-07-30T09:22:49.394Z,39.27
2018-07-30T09:23:49.377Z,38.09
2018-07-30T09:24:49.352Z,40.06
2018-07-30T09:25:49.339Z,40.62
2018-07-30T09:26:49.358Z,40.53
2018-07-30T09:27:49.318Z,41.80
2018-07-30T09:28:49.331Z,39.74
2018-07-30T09:29:49.316Z,39.45
2018-07-30T09:30:49.285Z,41.68
2018-07-30T09:31:49.276Z,41.17
2018-07-30T09:32:49.286Z,40.19
2018-07-30T09:33:49.271Z,38.04
2018-07-30T09:34:49.245Z,37.94
2018-07-30T09:35:49.247Z,38.43
2018-07-30T09:36:49.218Z,39.61
2018-07-30T09:37:49.215Z,41.27
2018-07-30T09:38:49.254Z,40.09
2018-07-30T09:39:49.191Z,38.31
2018-07-30T09:40:49.183Z,37.33
2018-07-30T09:41:49.184Z,39.49
2018-07-30T09:42:49.159Z,39.66
2018-07-30T09:43:49.150Z,37.90
2018-07-30T09:44:49.214Z,39.09
2018-07-30T09:45:49.129Z,38.02
2018-07-30T09:46:49.117Z,39.27
2018-07-30T09:47:49.121Z,39.37
2018-07-30T09:48:49.102Z,38.60
2018-07-30T09:49:49.086Z,39.27
2018-07-30T09:50:49.084Z,37.90
2018-07-30T09:51:49.069Z,39.49
2018-07-30T09:52:49.050Z,38.10
2018-07-30T09:53:49.061Z,39.56
2018-07-30T09:54:49.030Z,37.21
2018-07-30T09:55:49.055Z,38.98
2018-07-30T09:56:49.012Z,37.31
2018-07-30T09:57:48.995Z,36.33
2018-07-30T09:58:48.990Z,37.81
2018-07-30T09:59:48.991Z,37.81
2018-07-30T10:00:48.966Z,38.20
2018-07-30T10:01:48.971Z,37.90
2018-07-30T10:02:48.947Z,37.21
2018-07-30T10:03:48.929Z,38.29
2018-07-30T10:04:48.924Z,37.69
2018-07-30T10:05:48.940Z,37.59
2018-07-30T10:06:48.924Z,40.14
2018-07-30T10:07:48.894Z,37.10
2018-07-30T10:08:48.885Z,37.08
2018-07-30T10:09:48.871Z,36.00
2018-07-30T10:10:48.861Z,35.42
2018-07-30T10:11:48.980Z,35.91
2018-07-30T10:12:48.854Z,37.57
2018-07-30T10:13:48.829Z,37.57
2018-07-30T10:14:48.820Z,36.59
2018-07-30T10:15:48.809Z,36.40
2018-07-30T10:16:48.798Z,36.59
2018-07-30T10:17:48.856Z,37.55
2018-07-30T10:18:48.772Z,36.77
2018-07-30T10:19:48.757Z,35.32
2018-07-30T10:20:48.751Z,39.41
2018-07-30T10:21:48.745Z,35.50
2018-07-30T10:22:48.729Z,37.14
2018-07-30T10:23:48.844Z,39.28
2018-07-30T10:24:48.707Z,37.32
2018-07-30T10:25:48.702Z,37.11
2018-07-30T10:26:48.690Z,37.40
2018-07-30T10:27:48.684Z,35.82
2018-07-30T10:28:48.740Z,35.53
2018-07-30T10:29:48.678Z,35.33
2018-07-30T10:30:48.661Z,38.35
2018-07-30T10:31:48.638Z,36.04
2018-07-30T10:32:48.633Z,36.52
2018-07-30T10:33:48.616Z,36.72
2018-07-30T10:34:48.619Z,36.43
2018-07-30T10:35:48.606Z,36.72
2018-07-30T10:36:48.591Z,36.33
2018-07-30T10:37:48.577Z,37.50
2018-07-30T10:38:48.567Z,33.41
2018-07-30T10:39:48.580Z,35.36
2018-07-30T10:40:48.541Z,34.00
2018-07-30T10:41:48.552Z,35.38
2018-07-30T10:42:48.519Z,35.28
2018-07-30T10:43:48.513Z,35.28
2018-07-30T10:44:48.499Z,36.57
2018-07-30T10:45:48.502Z,35.50
2018-07-30T10:46:48.484Z,35.40
2018-07-30T10:47:48.492Z,34.74
2018-07-30T10:48:48.466Z,35.30
2018-07-30T10:49:48.456Z,35.03
2018-07-30T10:50:48.450Z,36.96
2018-07-30T10:51:48.426Z,37.95
2018-07-30T10:52:48.418Z,35.60
2018-07-30T10:53:48.460Z,39.41
2018-07-30T10:54:48.392Z,36.96
2018-07-30T10:55:48.408Z,36.28
2018-07-30T10:56:48.368Z,36.26
2018-07-30T10:57:48.362Z,36.94
2018-07-30T10:58:48.353Z,34.01
2018-07-30T10:59:48.352Z,34.33
2018-07-30T11:00:48.363Z,35.01
2018-07-30T11:01:48.325Z,37.54
2018-07-30T11:02:48.310Z,38.51
2018-07-30T11:03:48.299Z,37.62
2018-07-30T11:04:48.290Z,31.95
2018-07-30T11:05:48.292Z,35.36
2018-07-30T11:06:48.296Z,36.44
2018-07-30T11:07:48.307Z,34.39
2018-07-30T11:08:48.253Z,33.90
2018-07-30T11:09:48.304Z,33.82
2018-07-30T11:10:48.239Z,34.80
2018-07-30T11:11:48.225Z,33.92
2018-07-30T11:12:48.244Z,34.99
2018-07-30T11:13:48.189Z,33.82
2018-07-30T11:14:48.229Z,36.85
2018-07-30T11:15:48.177Z,36.26
2018-07-30T11:16:48.160Z,33.80
2018-07-30T11:17:48.180Z,31.95
2018-07-30T11:18:48.137Z,35.27
2018-07-30T11:19:48.142Z,36.24
2018-07-30T11:20:48.117Z,34.09
2018-07-30T11:21:48.108Z,35.95
2018-07-30T11:22:48.094Z,36.72
2018-07-30T11:23:48.135Z,36.02
2018-07-30T11:24:48.080Z,33.95
2018-07-30T11:25:48.066Z,33.65
2018-07-30T11:26:48.055Z,35.90
2018-07-30T11:27:48.046Z,35.22
2018-07-30T11:28:48.053Z,31.49
2018-07-30T11:29:48.068Z,34.12
2018-07-30T11:30:48.015Z,33.06
2018-07-30T11:31:48.010Z,32.57
2018-07-30T11:32:47.995Z,35.20
2018-07-30T11:33:47.979Z,35.20
2018-07-30T11:34:48.024Z,31.49
2018-07-30T11:35:47.973Z,35.12
2018-07-30T11:36:47.950Z,36.11
2018-07-30T11:37:47.943Z,33.97
2018-07-30T11:38:47.928Z,33.97
2018-07-30T11:39:47.917Z,33.11
2018-07-30T11:40:47.921Z,31.75
2018-07-30T11:41:47.909Z,32.24
2018-07-30T11:42:47.935Z,31.85
2018-07-30T11:43:47.877Z,34.21
2018-07-30T11:44:47.867Z,35.97
2018-07-30T11:45:47.900Z,35.17
2018-07-30T11:46:47.849Z,36.13
2018-07-30T11:47:47.847Z,37.29
2018-07-30T11:48:47.884Z,35.02
2018-07-30T11:49:47.830Z,33.06
2018-07-30T11:50:47.804Z,34.61
2018-07-30T11:51:47.807Z,35.39
2018-07-30T11:52:47.787Z,33.92
2018-07-30T11:53:47.790Z,32.47
2018-07-30T11:54:47.756Z,32.29
2018-07-30T11:55:47.758Z,32.70
2018-07-30T11:56:47.769Z,31.84
2018-07-30T11:57:47.729Z,31.57
2018-07-30T11:58:47.723Z,33.85
2018-07-30T11:59:47.715Z,35.14
2018-07-30T12:00:47.701Z,37.41
2018-07-30T12:01:47.737Z,38.00
2018-07-30T12:02:47.704Z,37.61
2018-07-30T12:03:47.677Z,37.81
2018-07-30T12:04:47.656Z,38.12
2018-07-30T12:05:47.662Z,38.02
2018-07-30T12:06:47.635Z,38.33
2018-07-30T12:07:47.651Z,37.94
2018-07-30T12:08:47.623Z,39.22
2018-07-30T12:09:47.604Z,39.19
2018-07-30T12:10:47.589Z,38.33
2018-07-30T12:11:47.593Z,39.70
2018-07-30T12:12:47.575Z,38.82
2018-07-30T12:13:47.593Z,39.01
2018-07-30T12:14:47.550Z,38.43
2018-07-30T12:15:47.537Z,37.45
2018-07-30T12:16:47.528Z,37.94
2018-07-30T12:17:47.534Z,39.72
2018-07-30T12:18:47.507Z,41.19
2018-07-30T12:19:47.535Z,39.61
2018-07-30T12:20:47.484Z,39.11
2018-07-30T12:21:47.568Z,38.10
2018-07-30T12:22:47.464Z,39.07
2018-07-30T12:23:47.507Z,38.08
2018-07-30T12:24:47.446Z,37.88
2018-07-30T12:25:47.435Z,38.06
2018-07-30T12:26:47.425Z,39.33
2018-07-30T12:27:47.413Z,36.08
2018-07-30T12:28:47.417Z,36.38
2018-07-30T12:29:47.420Z,36.36
2018-07-30T12:30:47.379Z,36.73
2018-07-30T12:31:47.369Z,35.95
2018-07-30T12:32:47.364Z,35.85
2018-07-30T12:33:47.352Z,38.01
2018-07-30T12:34:47.358Z,36.52
2018-07-30T12:35:47.345Z,34.28
2018-07-30T12:36:47.314Z,35.35
2018-07-30T12:38:08.317Z,36.13
2018-07-30T12:38:47.298Z,35.45
2018-07-30T12:39:47.283Z,34.36
2018-07-30T12:40:47.294Z,34.26
2018-07-30T12:41:47.297Z,37.46
2018-07-30T12:42:47.254Z,35.04
2018-07-30T12:43:47.253Z,36.49
2018-07-30T12:44:47.255Z,35.10
2018-07-30T12:45:47.221Z,32.96
2018-07-30T12:46:47.241Z,34.22
2018-07-30T12:47:47.218Z,32.09
2018-07-30T12:48:47.197Z,33.48
2018-07-30T12:49:47.183Z,34.47
2018-07-30T12:50:47.174Z,34.58
2018-07-30T12:51:47.212Z,34.21
2018-07-30T12:52:47.151Z,34.11